createdAt,value
2022-10-09T00:00:34.355Z,10.15
2022-10-09T00:01:34.419Z,10.15
2022-10-09T00:02:34.539Z,10.14
2022-10-09T00:03:40.850Z,10.14
2022-10-09T00:04:35.375Z,10.13
2022-10-09T00:05:35.444Z,10.13
2022-10-09T00:06:35.610Z,10.12
2022-10-09T00:07:34.177Z,10.11
2022-10-09T00:08:41.874Z,10.10
2022-10-09T00:09:34.221Z,10.10
2022-10-09T00:10:35.593Z,10.09
2022-10-09T00:11:34.502Z,10.09
2022-10-09T00:12:34.535Z,10.08
2022-10-09T00:13:41.518Z,10.08
2022-10-09T00:14:34.397Z,10.08
2022-10-09T00:15:34.038Z,10.07
2022-10-09T00:16:35.108Z,10.07
2022-10-09T00:17:35.012Z,10.07
2022-10-09T00:18:40.318Z,10.06
2022-10-09T00:19:34.403Z,10.06
2022-10-09T00:20:34.521Z,10.06
2022-10-09T00:21:38.119Z,10.06
2022-10-09T00:22:34.595Z,10.05
2022-10-09T00:23:40.737Z,10.05
2022-10-09T00:24:34.017Z,10.05
2022-10-09T00:25:35.132Z,10.04
2022-10-09T00:26:34.185Z,10.04
2022-10-09T00:27:33.973Z,10.03
2022-10-09T00:28:38.306Z,10.03
2022-10-09T00:29:40.406Z,10.02
2022-10-09T00:30:33.972Z,10.02
2022-10-09T00:31:33.886Z,10.01
2022-10-09T00:32:35.007Z,10.00
2022-10-09T00:33:35.069Z,9.99
2022-10-09T00:34:40.502Z,9.99
2022-10-09T00:35:33.785Z,9.98
2022-10-09T00:36:33.890Z,9.97
2022-10-09T00:37:34.817Z,9.97
2022-10-09T00:38:34.248Z,9.96
2022-10-09T00:39:40.479Z,9.96
2022-10-09T00:40:36.791Z,9.95
2022-10-09T00:41:34.061Z,9.95
2022-10-09T00:42:33.664Z,9.94
2022-10-09T00:43:34.090Z,9.94
2022-10-09T00:44:33.718Z,9.93
2022-10-09T00:45:40.004Z,9.93
2022-10-09T00:46:33.874Z,9.92
2022-10-09T00:47:33.936Z,9.92
2022-10-09T00:48:34.688Z,9.92
2022-10-09T00:49:33.556Z,9.91
2022-10-09T00:50:40.359Z,9.91
2022-10-09T00:51:33.793Z,9.90
2022-10-09T00:52:33.833Z,9.90
2022-10-09T00:53:33.716Z,9.89
2022-10-09T00:54:34.642Z,9.89
2022-10-09T00:55:33.542Z,9.88
2022-10-09T00:56:41.087Z,9.88
2022-10-09T00:57:35.070Z,9.87
2022-10-09T00:58:33.812Z,9.86
2022-10-09T00:59:33.714Z,9.85
2022-10-09T01:00:34.136Z,9.84
2022-10-09T01:01:33.525Z,9.83
2022-10-09T01:02:45.444Z,9.82
2022-10-09T01:03:33.523Z,9.82
2022-10-09T01:04:35.980Z,9.81
2022-10-09T01:05:34.625Z,9.80
2022-10-09T01:06:34.011Z,9.79
2022-10-09T01:07:38.331Z,9.79
2022-10-09T01:08:40.900Z,9.78
2022-10-09T01:09:33.728Z,9.78
2022-10-09T01:10:33.333Z,9.78
2022-10-09T01:11:33.474Z,9.77
2022-10-09T01:12:33.797Z,9.77
2022-10-09T01:13:34.157Z,9.77
2022-10-09T01:14:40.999Z,9.77
2022-10-09T01:15:33.887Z,9.77
2022-10-09T01:16:33.577Z,9.76
2022-10-09T01:17:33.808Z,9.76
2022-10-09T01:18:34.155Z,9.76
2022-10-09T01:19:33.299Z,9.75
2022-10-09T01:20:39.651Z,9.75
2022-10-09T01:21:33.418Z,9.74
2022-10-09T01:22:33.434Z,9.74
2022-10-09T01:23:33.993Z,9.73
2022-10-09T01:24:33.327Z,9.72
2022-10-09T01:25:34.514Z,9.72
2022-10-09T01:26:39.468Z,9.71
2022-10-09T01:27:33.202Z,9.70
2022-10-09T01:28:33.498Z,9.70
2022-10-09T01:29:33.110Z,9.69
2022-10-09T01:30:33.103Z,9.68
2022-10-09T01:31:33.163Z,9.68
2022-10-09T01:32:40.417Z,9.67
2022-10-09T01:33:33.089Z,9.67
2022-10-09T01:34:33.966Z,9.66
2022-10-09T01:35:33.397Z,9.65
2022-10-09T01:36:34.222Z,9.65
2022-10-09T01:37:39.307Z,9.64
2022-10-09T01:38:33.859Z,9.64
2022-10-09T01:39:33.357Z,9.63
2022-10-09T01:40:35.654Z,9.63
2022-10-09T01:41:33.961Z,9.63
2022-10-09T01:42:33.295Z,9.63
2022-10-09T01:43:40.357Z,9.63
2022-10-09T01:44:33.627Z,9.62
2022-10-09T01:45:33.033Z,9.62
2022-10-09T01:46:32.978Z,9.62
2022-10-09T01:47:32.927Z,9.61
2022-10-09T01:48:33.136Z,9.61
2022-10-09T01:49:39.195Z,9.60
2022-10-09T01:50:33.339Z,9.60
2022-10-09T01:51:33.068Z,9.59
2022-10-09T01:52:32.799Z,9.59
2022-10-09T01:53:36.938Z,9.58
2022-10-09T01:54:39.403Z,9.58
2022-10-09T01:55:32.798Z,9.57
2022-10-09T01:56:34.676Z,9.56
2022-10-09T01:57:33.040Z,9.55
2022-10-09T01:58:32.896Z,9.55
2022-10-09T01:59:33.513Z,9.55
2022-10-09T02:00:39.398Z,9.54
2022-10-09T02:01:34.355Z,9.54
2022-10-09T02:02:32.762Z,9.54
2022-10-09T02:03:32.749Z,9.54
2022-10-09T02:04:34.043Z,9.53
2022-10-09T02:05:33.115Z,9.53
2022-10-09T02:06:38.961Z,9.53
2022-10-09T02:07:33.124Z,9.53
2022-10-09T02:08:33.542Z,9.52
2022-10-09T02:09:32.665Z,9.52
2022-10-09T02:10:33.375Z,9.51
2022-10-09T02:11:40.263Z,9.51
2022-10-09T02:12:32.773Z,9.50
2022-10-09T02:13:32.975Z,9.50
2022-10-09T02:14:34.942Z,9.49
2022-10-09T02:15:32.533Z,9.49
2022-10-09T02:17:03.956Z,10.61
2022-10-09T02:18:03.749Z,10.16
2022-10-09T02:19:02.659Z,9.86
2022-10-09T02:20:03.188Z,9.69
2022-10-09T02:21:02.961Z,9.59
2022-10-09T02:22:10.342Z,9.53
2022-10-09T02:23:07.974Z,9.49
2022-10-09T02:24:02.133Z,9.46
2022-10-09T02:25:02.493Z,9.45
2022-10-09T02:26:02.579Z,9.44
2022-10-09T02:27:09.612Z,9.43
2022-10-09T02:28:02.125Z,9.43
2022-10-09T02:29:02.808Z,9.42
2022-10-09T02:30:02.507Z,9.42
2022-10-09T02:31:03.459Z,9.42
2022-10-09T02:32:02.602Z,9.41
2022-10-09T02:33:08.657Z,9.41
2022-10-09T02:34:02.336Z,9.40
2022-10-09T02:35:02.112Z,9.40
2022-10-09T02:36:02.752Z,9.39
2022-10-09T02:37:03.044Z,9.39
2022-10-09T02:38:01.958Z,9.38
2022-10-09T02:39:08.469Z,9.38
2022-10-09T02:40:06.984Z,9.38
2022-10-09T02:41:04.116Z,9.37
2022-10-09T02:42:02.040Z,9.37
2022-10-09T02:43:01.872Z,9.36
2022-10-09T02:44:01.896Z,9.36
2022-10-09T02:45:08.181Z,9.36
2022-10-09T02:46:03.236Z,9.35
2022-10-09T02:47:02.034Z,9.35
2022-10-09T02:48:02.345Z,9.35
2022-10-09T02:49:02.475Z,9.35
2022-10-09T02:50:02.375Z,9.34
2022-10-09T02:51:09.384Z,9.34
2022-10-09T02:52:01.980Z,9.34
2022-10-09T02:53:01.875Z,9.33
2022-10-09T02:54:01.832Z,9.33
2022-10-09T02:55:02.139Z,9.33
2022-10-09T02:56:03.172Z,9.32
2022-10-09T02:57:08.093Z,9.32
2022-10-09T02:58:03.935Z,9.31
2022-10-09T02:59:01.730Z,9.31
2022-10-09T03:00:02.672Z,9.30
2022-10-09T03:01:01.604Z,9.29
2022-10-09T03:02:08.037Z,9.29
2022-10-09T03:03:02.771Z,9.29
2022-10-09T03:04:02.183Z,9.28
2022-10-09T03:05:01.647Z,9.28
2022-10-09T03:06:01.692Z,9.28
2022-10-09T03:07:01.975Z,9.28
2022-10-09T03:08:09.199Z,9.28
2022-10-09T03:09:02.473Z,9.27
2022-10-09T03:10:02.081Z,9.27
2022-10-09T03:11:01.549Z,9.26
2022-10-09T03:12:01.496Z,9.26
2022-10-09T03:13:01.631Z,9.25
2022-10-09T03:14:08.379Z,9.24
2022-10-09T03:15:01.893Z,9.24
2022-10-09T03:16:02.429Z,9.23
2022-10-09T03:17:01.836Z,9.22
2022-10-09T03:18:02.487Z,9.21
2022-10-09T03:19:01.444Z,9.20
2022-10-09T03:20:08.360Z,9.19
2022-10-09T03:21:01.422Z,9.19
2022-10-09T03:22:01.458Z,9.18
2022-10-09T03:23:01.602Z,9.18
2022-10-09T03:24:01.353Z,9.17
2022-10-09T03:25:01.728Z,9.17
2022-10-09T03:26:08.261Z,9.16
2022-10-09T03:27:01.370Z,9.16
2022-10-09T03:28:01.453Z,9.15
2022-10-09T03:29:01.401Z,9.15
2022-10-09T03:30:01.342Z,9.14
2022-10-09T03:31:01.649Z,9.14
2022-10-09T03:32:08.573Z,9.13
2022-10-09T03:33:01.673Z,9.13
2022-10-09T03:34:02.325Z,9.12
2022-10-09T03:35:01.344Z,9.12
2022-10-09T03:36:01.728Z,9.11
2022-10-09T03:37:01.200Z,9.11
2022-10-09T03:38:07.800Z,9.10
2022-10-09T03:39:01.149Z,9.10
2022-10-09T03:40:02.403Z,9.10
2022-10-09T03:41:01.098Z,9.09
2022-10-09T03:42:02.373Z,9.09
2022-10-09T03:43:01.155Z,9.09
2022-10-09T03:44:08.170Z,9.08
2022-10-09T03:45:01.180Z,9.08
2022-10-09T03:46:01.627Z,9.07
2022-10-09T03:47:01.892Z,9.07
2022-10-09T03:48:01.720Z,9.07
2022-10-09T03:49:01.610Z,9.06
2022-10-09T03:50:07.365Z,9.06
2022-10-09T03:51:01.106Z,9.06
2022-10-09T03:52:01.607Z,9.06
2022-10-09T03:53:01.554Z,9.06
2022-10-09T03:54:01.887Z,9.05
2022-10-09T03:55:01.336Z,9.05
2022-10-09T03:56:08.009Z,9.05
2022-10-09T03:57:00.913Z,9.05
2022-10-09T03:58:02.188Z,9.05
2022-10-09T03:59:01.277Z,9.04
2022-10-09T04:00:01.228Z,9.03
2022-10-09T04:01:07.833Z,9.03
2022-10-09T04:02:03.320Z,9.02
2022-10-09T04:03:01.892Z,9.02
2022-10-09T04:04:01.258Z,9.01
2022-10-09T04:05:00.830Z,9.01
2022-10-09T04:06:01.024Z,9.00
2022-10-09T04:07:11.665Z,9.00
2022-10-09T04:08:00.802Z,8.99
2022-10-09T04:09:01.718Z,8.98
2022-10-09T04:10:00.854Z,8.98
2022-10-09T04:11:01.111Z,8.98
2022-10-09T04:12:00.796Z,8.97
2022-10-09T04:13:07.088Z,8.96
2022-10-09T04:14:00.988Z,8.96
2022-10-09T04:15:00.739Z,8.95
2022-10-09T04:16:01.391Z,8.95
2022-10-09T04:17:00.915Z,8.94
2022-10-09T04:18:07.930Z,8.94
2022-10-09T04:19:01.069Z,8.94
2022-10-09T04:20:00.714Z,8.93
2022-10-09T04:21:01.406Z,8.93
2022-10-09T04:22:01.670Z,8.92
2022-10-09T04:23:00.642Z,8.91
2022-10-09T04:24:07.487Z,8.91
2022-10-09T04:25:00.883Z,8.90
2022-10-09T04:26:00.584Z,8.89
2022-10-09T04:27:00.946Z,8.88
2022-10-09T04:28:00.671Z,8.87
2022-10-09T04:29:07.260Z,8.86
2022-10-09T04:30:00.521Z,8.85
2022-10-09T04:31:00.713Z,8.84
2022-10-09T04:32:00.944Z,8.83
2022-10-09T04:33:00.778Z,8.82
2022-10-09T04:34:06.779Z,8.82
2022-10-09T04:35:02.044Z,8.81
2022-10-09T04:36:01.024Z,8.81
2022-10-09T04:37:00.437Z,8.80
2022-10-09T04:38:00.546Z,8.80
2022-10-09T04:39:01.760Z,8.79
2022-10-09T04:40:06.991Z,8.78
2022-10-09T04:41:00.386Z,8.78
2022-10-09T04:42:01.012Z,8.77
2022-10-09T04:43:01.088Z,8.76
2022-10-09T04:44:01.701Z,8.76
2022-10-09T04:45:00.375Z,8.75
2022-10-09T04:46:06.659Z,8.75
2022-10-09T04:47:00.575Z,8.74
2022-10-09T04:48:00.398Z,8.74
2022-10-09T04:49:00.525Z,8.73
2022-10-09T04:50:00.605Z,8.72
2022-10-09T04:51:06.561Z,8.71
2022-10-09T04:52:00.212Z,8.70
2022-10-09T04:53:00.180Z,8.70
2022-10-09T04:54:00.855Z,8.69
2022-10-09T04:55:00.548Z,8.69
2022-10-09T04:56:00.834Z,8.69
2022-10-09T04:57:07.279Z,8.69
2022-10-09T04:58:00.951Z,8.68
2022-10-09T04:59:00.124Z,8.68
2022-10-09T05:00:02.880Z,8.68
2022-10-09T05:01:00.660Z,8.68
2022-10-09T05:02:06.500Z,8.68
2022-10-09T05:03:00.519Z,8.68
2022-10-09T05:04:00.128Z,8.67
2022-10-09T05:05:00.103Z,8.67
2022-10-09T05:06:00.122Z,8.67
2022-10-09T05:07:06.739Z,8.66
2022-10-09T05:08:00.672Z,8.66
2022-10-09T05:09:00.367Z,8.66
2022-10-09T05:10:00.185Z,8.66
2022-10-09T05:11:00.054Z,8.66
2022-10-09T05:12:06.334Z,8.65
2022-10-09T05:12:59.972Z,8.65
2022-10-09T05:14:00.064Z,8.65
2022-10-09T05:15:00.456Z,8.64
2022-10-09T05:16:21.960Z,8.64
2022-10-09T05:17:13.767Z,8.64
2022-10-09T05:18:07.828Z,8.64
2022-10-09T05:19:00.177Z,8.63
2022-10-09T05:20:00.548Z,8.63
2022-10-09T05:21:00.293Z,8.63
2022-10-09T05:22:00.041Z,8.62
2022-10-09T05:22:59.869Z,8.62
2022-10-09T05:24:10.130Z,8.61
2022-10-09T05:25:01.089Z,8.61
2022-10-09T05:26:00.260Z,8.61
2022-10-09T05:26:59.768Z,8.61
2022-10-09T05:28:00.426Z,8.60
2022-10-09T05:29:06.029Z,8.60
2022-10-09T05:30:00.318Z,8.61
2022-10-09T05:31:00.088Z,8.61
2022-10-09T05:31:59.783Z,8.61
2022-10-09T05:33:00.421Z,8.62
2022-10-09T05:34:05.977Z,8.62
2022-10-09T05:34:59.699Z,8.62
2022-10-09T05:36:00.245Z,8.62
2022-10-09T05:37:01.873Z,8.63
2022-10-09T05:37:59.639Z,8.63
2022-10-09T05:38:59.628Z,8.63
2022-10-09T05:40:05.898Z,8.64
2022-10-09T05:41:00.082Z,8.64
2022-10-09T05:41:59.937Z,8.65
2022-10-09T05:42:59.882Z,8.65
2022-10-09T05:43:59.523Z,8.65
2022-10-09T05:45:06.164Z,8.66
2022-10-09T05:46:00.329Z,8.66
2022-10-09T05:46:59.986Z,8.67
2022-10-09T05:47:59.586Z,8.67
2022-10-09T05:49:00.341Z,8.68
2022-10-09T05:50:00.045Z,8.68
2022-10-09T05:51:06.570Z,8.69
2022-10-09T05:51:59.489Z,8.69
2022-10-09T05:53:00.222Z,8.70
2022-10-09T05:54:01.385Z,8.70
2022-10-09T05:55:00.304Z,8.71
2022-10-09T05:56:03.570Z,8.71
2022-10-09T05:57:05.788Z,8.72
2022-10-09T05:57:59.888Z,8.72
2022-10-09T05:58:59.955Z,8.72
2022-10-09T06:00:00.515Z,8.73
2022-10-09T06:00:59.719Z,8.73
2022-10-09T06:02:06.249Z,8.73
2022-10-09T06:02:59.295Z,8.73
2022-10-09T06:03:59.676Z,8.73
2022-10-09T06:04:59.539Z,8.73
2022-10-09T06:06:00.519Z,8.73
2022-10-09T06:07:05.632Z,8.74
2022-10-09T06:07:59.922Z,8.74
2022-10-09T06:09:01.089Z,8.75
2022-10-09T06:09:59.751Z,8.76
2022-10-09T06:10:59.259Z,8.76
2022-10-09T06:12:00.156Z,8.77
2022-10-09T06:13:05.565Z,8.78
2022-10-09T06:13:59.477Z,8.79
2022-10-09T06:14:59.887Z,8.80
2022-10-09T06:15:59.901Z,8.81
2022-10-09T06:17:00.038Z,8.82
2022-10-09T06:18:06.133Z,8.83
2022-10-09T06:18:59.848Z,8.84
2022-10-09T06:19:59.504Z,8.85
2022-10-09T06:20:59.281Z,8.86
2022-10-09T06:21:59.690Z,8.87
2022-10-09T06:23:05.434Z,8.88
2022-10-09T06:23:59.041Z,8.89
2022-10-09T06:24:59.573Z,8.90
2022-10-09T06:25:59.064Z,8.91
2022-10-09T06:27:00.101Z,8.92
2022-10-09T06:28:06.408Z,8.93
2022-10-09T06:28:59.271Z,8.95
2022-10-09T06:30:00.723Z,8.96
2022-10-09T06:30:59.620Z,8.97
2022-10-09T06:31:59.396Z,8.99
2022-10-09T06:32:59.025Z,9.00
2022-10-09T06:34:05.590Z,9.01
2022-10-09T06:35:00.160Z,9.02
2022-10-09T06:36:08.570Z,9.03
2022-10-09T06:37:00.420Z,9.04
2022-10-09T06:37:58.911Z,9.05
2022-10-09T06:38:58.860Z,9.06
2022-10-09T06:40:06.343Z,9.07
2022-10-09T06:40:59.013Z,9.08
2022-10-09T06:41:58.881Z,9.09
2022-10-09T06:42:59.288Z,9.10
2022-10-09T06:43:58.799Z,9.11
2022-10-09T06:45:07.761Z,9.12
2022-10-09T06:45:58.974Z,9.13
2022-10-09T06:46:58.789Z,9.15
2022-10-09T06:47:58.748Z,9.16
2022-10-09T06:48:59.833Z,9.17
2022-10-09T06:50:22.593Z,9.18
2022-10-09T06:50:58.760Z,9.19
2022-10-09T06:52:02.349Z,9.21
2022-10-09T06:52:58.726Z,9.22
2022-10-09T06:53:59.744Z,9.24
2022-10-09T06:55:00.608Z,9.25
2022-10-09T06:56:06.199Z,9.26
2022-10-09T06:57:19.700Z,9.27
2022-10-09T06:57:58.909Z,9.29
2022-10-09T06:58:58.991Z,9.30
2022-10-09T06:59:58.970Z,9.32
2022-10-09T07:01:00.786Z,9.34
2022-10-09T07:02:04.990Z,9.36
2022-10-09T07:02:58.573Z,9.38
2022-10-09T07:03:58.647Z,9.40
2022-10-09T07:04:59.008Z,9.41
2022-10-09T07:05:58.965Z,9.43
2022-10-09T07:06:58.505Z,9.44
2022-10-09T07:07:58.997Z,9.45
2022-10-09T07:08:58.531Z,9.46
2022-10-09T07:10:00.924Z,9.47
2022-10-09T07:10:58.704Z,9.48
2022-10-09T07:11:58.930Z,9.50
2022-10-09T07:13:06.977Z,9.52
2022-10-09T07:14:00.737Z,9.54
2022-10-09T07:14:58.749Z,9.56
2022-10-09T07:16:03.900Z,9.58
2022-10-09T07:17:02.200Z,9.62
2022-10-09T07:18:04.646Z,9.65
2022-10-09T07:18:58.677Z,9.68
2022-10-09T07:19:59.810Z,9.71
2022-10-09T07:20:59.667Z,9.74
2022-10-09T07:21:59.470Z,9.77
2022-10-09T07:23:04.554Z,9.80
2022-10-09T07:23:58.367Z,9.82
2022-10-09T07:24:58.962Z,9.85
2022-10-09T07:25:58.365Z,9.87
2022-10-09T07:26:58.733Z,9.88
2022-10-09T07:27:59.201Z,9.89
2022-10-09T07:29:04.620Z,9.90
2022-10-09T07:29:58.312Z,9.91
2022-10-09T07:30:58.549Z,9.91
2022-10-09T07:32:00.495Z,9.91
2022-10-09T07:32:58.325Z,9.92
2022-10-09T07:33:58.510Z,9.93
2022-10-09T07:35:04.648Z,9.94
2022-10-09T07:35:58.440Z,9.95
2022-10-09T07:36:58.549Z,9.96
2022-10-09T07:37:58.736Z,9.98
2022-10-09T07:38:59.441Z,10.00
2022-10-09T07:39:59.248Z,10.02
2022-10-09T07:41:04.844Z,10.03
2022-10-09T07:41:58.162Z,10.05
2022-10-09T07:42:59.277Z,10.07
2022-10-09T07:43:59.033Z,10.09
2022-10-09T07:45:03.431Z,10.10
2022-10-09T07:45:58.156Z,10.12
2022-10-09T07:47:04.709Z,10.13
2022-10-09T07:47:58.276Z,10.14
2022-10-09T07:48:58.354Z,10.15
2022-10-09T07:49:58.427Z,10.16
2022-10-09T07:50:57.989Z,10.18
2022-10-09T07:52:06.042Z,10.19
2022-10-09T07:52:58.270Z,10.21
2022-10-09T07:54:02.133Z,10.23
2022-10-09T07:54:58.283Z,10.25
2022-10-09T07:55:58.305Z,10.27
2022-10-09T07:56:58.438Z,10.29
2022-10-09T07:58:05.895Z,10.31
2022-10-09T07:59:04.140Z,10.33
2022-10-09T07:59:58.161Z,10.35
2022-10-09T08:00:58.880Z,10.37
2022-10-09T08:01:57.994Z,10.39
2022-10-09T08:03:04.131Z,10.40
2022-10-09T08:04:04.162Z,10.42
2022-10-09T08:04:58.620Z,10.44
2022-10-09T08:05:57.689Z,10.45
2022-10-09T08:06:57.991Z,10.47
2022-10-09T08:07:59.388Z,10.49
2022-10-09T08:09:04.156Z,10.51
2022-10-09T08:09:58.337Z,10.53
2022-10-09T08:10:58.832Z,10.54
2022-10-09T08:11:58.109Z,10.56
2022-10-09T08:12:57.936Z,10.58
2022-10-09T08:13:57.709Z,10.59
2022-10-09T08:15:04.385Z,10.61
2022-10-09T08:15:57.961Z,10.62
2022-10-09T08:16:57.603Z,10.64
2022-10-09T08:17:57.625Z,10.66
2022-10-09T08:18:57.831Z,10.67
2022-10-09T08:20:05.132Z,10.69
2022-10-09T08:20:57.843Z,10.70
2022-10-09T08:22:03.290Z,10.72
2022-10-09T08:22:58.517Z,10.74
2022-10-09T08:23:57.575Z,10.76
2022-10-09T08:25:01.885Z,10.78
2022-10-09T08:26:04.942Z,10.80
2022-10-09T08:26:57.548Z,10.83
2022-10-09T08:27:57.845Z,10.85
2022-10-09T08:28:58.708Z,10.88
2022-10-09T08:29:57.420Z,10.91
2022-10-09T08:31:03.923Z,10.93
2022-10-09T08:31:57.622Z,10.96
2022-10-09T08:32:58.445Z,10.99
2022-10-09T08:33:57.386Z,11.02
2022-10-09T08:34:57.539Z,11.04
2022-10-09T08:36:03.718Z,11.08
2022-10-09T08:36:57.331Z,11.11
2022-10-09T08:37:58.673Z,11.14
2022-10-09T08:38:57.313Z,11.17
2022-10-09T08:39:57.523Z,11.20
2022-10-09T08:41:03.595Z,11.23
2022-10-09T08:41:57.935Z,11.26
2022-10-09T08:42:57.350Z,11.29
2022-10-09T08:43:57.394Z,11.33
2022-10-09T08:44:57.288Z,11.36
2022-10-09T08:45:57.546Z,11.40
2022-10-09T08:47:03.557Z,11.44
2022-10-09T08:47:57.327Z,11.48
2022-10-09T08:48:57.691Z,11.51
2022-10-09T08:49:57.444Z,11.55
2022-10-09T08:50:57.478Z,11.59
2022-10-09T08:51:57.316Z,11.63
2022-10-09T08:53:03.501Z,11.66
2022-10-09T08:53:57.141Z,11.70
2022-10-09T08:54:57.386Z,11.74
2022-10-09T08:55:57.548Z,11.77
2022-10-09T08:56:57.619Z,11.81
2022-10-09T08:57:57.630Z,11.84
2022-10-09T08:59:05.253Z,11.88
2022-10-09T08:59:57.181Z,11.92
2022-10-09T09:00:58.050Z,11.95
2022-10-09T09:01:57.517Z,11.98
2022-10-09T09:02:57.074Z,12.02
2022-10-09T09:03:57.723Z,12.05
2022-10-09T09:05:03.292Z,12.08
2022-10-09T09:05:57.053Z,12.12
2022-10-09T09:06:58.104Z,12.15
2022-10-09T09:07:58.613Z,12.18
2022-10-09T09:08:58.256Z,12.21
2022-10-09T09:10:03.442Z,12.24
2022-10-09T09:10:56.897Z,12.27
2022-10-09T09:11:57.506Z,12.29
2022-10-09T09:12:56.862Z,12.32
2022-10-09T09:13:57.559Z,12.35
2022-10-09T09:15:03.407Z,12.39
2022-10-09T09:15:58.048Z,12.42
2022-10-09T09:16:56.900Z,12.46
2022-10-09T09:17:57.073Z,12.50
2022-10-09T09:18:57.214Z,12.53
2022-10-09T09:19:57.057Z,12.57
2022-10-09T09:21:04.202Z,12.61
2022-10-09T09:21:56.876Z,12.65
2022-10-09T09:22:57.932Z,12.68
2022-10-09T09:23:56.975Z,12.72
2022-10-09T09:24:56.718Z,12.75
2022-10-09T09:25:57.338Z,12.79
2022-10-09T09:27:04.648Z,12.82
2022-10-09T09:27:57.297Z,12.85
2022-10-09T09:28:57.038Z,12.88
2022-10-09T09:29:56.690Z,12.91
2022-10-09T09:30:57.038Z,12.95
2022-10-09T09:32:03.254Z,12.98
2022-10-09T09:32:56.884Z,13.02
2022-10-09T09:33:56.740Z,13.05
2022-10-09T09:34:56.691Z,13.08
2022-10-09T09:35:56.823Z,13.12
2022-10-09T09:36:56.616Z,13.14
2022-10-09T09:38:04.110Z,13.17
2022-10-09T09:40:58.816Z,13.25
2022-10-09T09:41:56.477Z,13.28
2022-10-09T09:43:05.023Z,13.30
2022-10-09T09:43:56.488Z,13.33
2022-10-09T09:44:56.493Z,13.36
2022-10-09T09:45:57.066Z,13.39
2022-10-09T09:46:56.491Z,13.41
2022-10-09T09:48:02.773Z,13.44
2022-10-09T09:48:56.829Z,13.47
2022-10-09T09:49:56.532Z,13.49
2022-10-09T09:51:16.294Z,13.53
2022-10-09T09:51:57.414Z,13.56
2022-10-09T09:53:03.107Z,13.60
2022-10-09T09:53:57.737Z,13.63
2022-10-09T09:54:56.713Z,13.66
2022-10-09T09:55:57.407Z,13.70
2022-10-09T09:57:15.959Z,13.73
2022-10-09T09:57:58.069Z,13.76
2022-10-09T09:59:03.379Z,13.79
2022-10-09T09:59:58.116Z,13.82
2022-10-09T10:00:56.956Z,13.85
2022-10-09T10:01:57.815Z,13.89
2022-10-09T10:02:56.842Z,13.92
2022-10-09T10:04:03.401Z,13.96
2022-10-09T10:05:03.202Z,14.00
2022-10-09T10:05:58.478Z,14.04
2022-10-09T10:06:56.723Z,14.08
2022-10-09T10:07:56.565Z,14.12
2022-10-09T10:08:57.189Z,14.16
2022-10-09T10:10:02.764Z,14.19
2022-10-09T10:10:56.948Z,14.22
2022-10-09T10:11:56.188Z,14.25
2022-10-09T10:12:56.166Z,14.28
2022-10-09T10:13:56.352Z,14.31
2022-10-09T10:15:07.126Z,14.34
2022-10-09T10:15:56.653Z,14.37
2022-10-09T10:16:56.121Z,14.40
2022-10-09T10:17:56.638Z,14.43
2022-10-09T10:18:56.381Z,14.46
2022-10-09T10:19:56.105Z,14.50
2022-10-09T10:21:02.288Z,14.53
2022-10-09T10:21:56.318Z,14.57
2022-10-09T10:22:55.951Z,14.62
2022-10-09T10:23:56.113Z,14.67
2022-10-09T10:24:56.306Z,14.72
2022-10-09T10:26:02.314Z,14.76
2022-10-09T10:26:56.000Z,14.80
2022-10-09T10:27:56.886Z,14.83
2022-10-09T10:28:55.980Z,14.86
2022-10-09T10:29:56.080Z,14.89
2022-10-09T10:30:56.002Z,14.92
2022-10-09T10:32:02.350Z,14.97
2022-10-09T10:32:56.809Z,15.05
2022-10-09T10:33:56.090Z,15.13
2022-10-09T10:34:56.222Z,15.21
2022-10-09T10:35:56.165Z,15.27
2022-10-09T10:37:03.536Z,15.30
2022-10-09T10:37:56.385Z,15.33
2022-10-09T10:38:55.954Z,15.34
2022-10-09T10:39:56.348Z,15.35
2022-10-09T10:40:55.975Z,15.35
2022-10-09T10:42:02.395Z,15.35
2022-10-09T10:42:58.645Z,15.35
2022-10-09T10:43:55.930Z,15.35
2022-10-09T10:44:56.116Z,15.35
2022-10-09T10:45:56.700Z,15.36
2022-10-09T10:47:02.718Z,15.36
2022-10-09T10:47:56.428Z,15.37
2022-10-09T10:48:55.787Z,15.39
2022-10-09T10:49:57.841Z,15.41
2022-10-09T10:50:56.023Z,15.44
2022-10-09T10:52:08.504Z,15.47
2022-10-09T10:52:56.519Z,15.51
2022-10-09T10:53:55.878Z,15.55
2022-10-09T10:54:55.893Z,15.59
2022-10-09T10:55:55.640Z,15.62
2022-10-09T10:56:55.693Z,15.65
2022-10-09T10:58:03.256Z,15.67
2022-10-09T10:58:56.791Z,15.69
2022-10-09T10:59:56.788Z,15.69
2022-10-09T11:00:55.714Z,15.70
2022-10-09T11:01:55.610Z,15.74
2022-10-09T11:02:56.379Z,15.79
2022-10-09T11:04:02.491Z,15.86
2022-10-09T11:04:56.418Z,15.91
2022-10-09T11:05:55.438Z,15.95
2022-10-09T11:06:55.603Z,15.99
2022-10-09T11:08:00.037Z,16.02
2022-10-09T11:08:56.094Z,16.04
2022-10-09T11:10:01.730Z,16.07
2022-10-09T11:10:56.394Z,16.10
2022-10-09T11:11:56.020Z,16.13
2022-10-09T11:12:55.744Z,16.14
2022-10-09T11:13:56.581Z,16.14
2022-10-09T11:14:55.349Z,16.14
2022-10-09T11:16:02.501Z,16.15
2022-10-09T11:16:56.718Z,16.15
2022-10-09T11:18:01.577Z,16.16
2022-10-09T11:18:56.038Z,16.19
2022-10-09T11:19:56.580Z,16.24
2022-10-09T11:21:02.742Z,16.32
2022-10-09T11:21:55.266Z,16.43
2022-10-09T11:22:55.319Z,16.54
2022-10-09T11:23:55.737Z,16.65
2022-10-09T11:24:55.184Z,16.75
2022-10-09T11:26:01.542Z,16.84
2022-10-09T11:26:59.658Z,16.91
2022-10-09T11:27:57.011Z,16.94
2022-10-09T11:28:55.140Z,16.95
2022-10-09T11:29:55.323Z,16.95
2022-10-09T11:30:56.332Z,16.95
2022-10-09T11:32:01.910Z,16.96
2022-10-09T11:32:55.673Z,16.97
2022-10-09T11:33:55.637Z,16.98
2022-10-09T11:34:55.288Z,16.99
2022-10-09T11:35:55.144Z,17.02
2022-10-09T11:37:01.428Z,17.07
2022-10-09T11:37:55.113Z,17.15
2022-10-09T11:38:55.123Z,17.25
2022-10-09T11:39:54.995Z,17.38
2022-10-09T11:40:55.436Z,17.49
2022-10-09T11:42:01.691Z,17.58
2022-10-09T11:42:55.468Z,17.63
2022-10-09T11:43:57.408Z,17.64
2022-10-09T11:44:55.054Z,17.60
2022-10-09T11:45:55.512Z,17.55
2022-10-09T11:46:54.846Z,17.50
2022-10-09T11:48:02.697Z,17.45
2022-10-09T11:48:57.237Z,17.41
2022-10-09T11:49:54.898Z,17.36
2022-10-09T11:50:54.975Z,17.31
2022-10-09T11:51:54.880Z,17.27
2022-10-09T11:53:01.263Z,17.22
2022-10-09T11:53:54.942Z,17.19
2022-10-09T11:54:55.142Z,17.16
2022-10-09T11:55:55.655Z,17.15
2022-10-09T11:56:55.255Z,17.15
2022-10-09T11:57:54.755Z,17.14
2022-10-09T11:59:01.223Z,17.14
2022-10-09T11:59:54.693Z,17.13
2022-10-09T12:00:54.902Z,17.13
2022-10-09T12:01:54.890Z,17.12
2022-10-09T12:02:54.837Z,17.12
2022-10-09T12:04:02.089Z,17.12
2022-10-09T12:04:55.759Z,17.12
2022-10-09T12:05:55.325Z,17.12
2022-10-09T12:06:54.624Z,17.12
2022-10-09T12:07:54.718Z,17.10
2022-10-09T12:09:02.392Z,17.10
2022-10-09T12:09:54.693Z,17.11
2022-10-09T12:10:54.624Z,17.15
2022-10-09T12:11:54.735Z,17.19
2022-10-09T12:12:54.925Z,17.24
2022-10-09T12:14:00.992Z,17.29
2022-10-09T12:14:54.737Z,17.34
2022-10-09T12:15:54.491Z,17.40
2022-10-09T12:16:54.643Z,17.49
2022-10-09T12:17:55.204Z,17.61
2022-10-09T12:19:01.032Z,17.75
2022-10-09T12:19:58.697Z,17.90
2022-10-09T12:20:57.086Z,18.04
2022-10-09T12:21:54.540Z,18.16
2022-10-09T12:23:24.698Z,18.25
2022-10-09T12:23:56.236Z,18.30
2022-10-09T12:25:01.355Z,18.32
2022-10-09T12:25:54.977Z,18.33
2022-10-09T12:26:56.810Z,18.34
2022-10-09T12:27:54.460Z,18.36
2022-10-09T12:28:55.696Z,18.39
2022-10-09T12:30:00.883Z,18.43
2022-10-09T12:30:55.141Z,18.48
2022-10-09T12:31:54.348Z,18.52
2022-10-09T12:32:55.222Z,18.56
2022-10-09T12:33:54.698Z,18.58
2022-10-09T12:34:54.584Z,18.61
2022-10-09T12:36:00.853Z,18.62
2022-10-09T12:36:54.732Z,18.65
2022-10-09T12:37:54.930Z,18.67
2022-10-09T12:38:54.353Z,18.69
2022-10-09T12:39:54.374Z,18.72
2022-10-09T12:40:55.357Z,18.75
2022-10-09T12:42:00.602Z,18.78
2022-10-09T12:42:54.418Z,18.82
2022-10-09T12:43:54.470Z,18.86
2022-10-09T12:44:54.685Z,18.89
2022-10-09T12:46:01.292Z,18.94
2022-10-09T12:47:00.762Z,19.01
2022-10-09T12:47:54.308Z,19.08
2022-10-09T12:48:54.198Z,19.11
2022-10-09T12:49:54.363Z,19.11
2022-10-09T12:50:54.514Z,19.12
2022-10-09T12:52:01.287Z,19.13
2022-10-09T12:52:54.530Z,19.14
2022-10-09T12:53:55.080Z,19.28
2022-10-09T12:54:54.766Z,19.80
2022-10-09T12:55:54.297Z,20.29
2022-10-09T12:57:00.856Z,20.71
2022-10-09T12:57:54.040Z,21.39
2022-10-09T12:58:54.355Z,21.84
2022-10-09T12:59:54.196Z,21.81
2022-10-09T13:00:54.273Z,21.54
2022-10-09T13:01:55.003Z,21.19
2022-10-09T13:03:00.736Z,20.83
2022-10-09T13:03:53.864Z,20.49
2022-10-09T13:04:53.923Z,20.19
2022-10-09T13:05:54.294Z,19.93
2022-10-09T13:06:54.540Z,19.70
2022-10-09T13:07:54.259Z,19.57
2022-10-09T13:09:01.531Z,19.93